sensor_id;sensor_type;location;lat;lon;timestamp;pressure;altitude;pressure_sealevel;temperature;humidity
967;BME280;56108;48.730;9.304;2023-03-03T00:01:04;97777.00;;;1.06;100.00
967;BME280;56108;48.730;9.304;2023-03-03T00:03:16;97780.59;;;1.02;100.00
967;BME280;56108;48.730;9.304;2023-03-03T00:05:27;97773.81;;;0.95;100.00
967;BME280;56108;48.730;9.304;2023-03-03T00:07:35;97783.66;;;0.87;100.00
967;BME280;56108;48.730;9.304;2023-03-03T00:09:43;97785.63;;;0.78;100.00
967;BME280;56108;48.730;9.304;2023-03-03T00:11:55;97773.75;;;0.65;100.00
967;BME280;56108;48.730;9.304;2023-03-03T00:14:17;97775.81;;;0.54;100.00
967;BME280;56108;48.730;9.304;2023-03-03T00:16:29;97769.00;;;0.47;100.00
967;BME280;56108;48.730;9.304;2023-03-03T00:18:41;97772.66;;;0.41;100.00
967;BME280;56108;48.730;9.304;2023-03-03T00:20:52;97774.53;;;0.36;100.00
967;BME280;56108;48.730;9.304;2023-03-03T00:23:13;97773.03;;;0.28;100.00
967;BME280;56108;48.730;9.304;2023-03-03T00:25:27;97770.63;;;0.18;100.00
967;BME280;56108;48.730;9.304;2023-03-03T00:27:38;97774.19;;;0.16;100.00
967;BME280;56108;48.730;9.304;2023-03-03T00:29:55;97770.69;;;0.17;100.00
967;BME280;56108;48.730;9.304;2023-03-03T00:32:20;97767.97;;;0.20;100.00
967;BME280;56108;48.730;9.304;2023-03-03T00:34:29;97762.94;;;0.12;100.00
967;BME280;56108;48.730;9.304;2023-03-03T00:36:37;97763.88;;;0.10;100.00
967;BME280;56108;48.730;9.304;2023-03-03T00:38:46;97758.72;;;0.07;100.00
967;BME280;56108;48.730;9.304;2023-03-03T00:40:54;97765.09;;;-0.04;100.00
967;BME280;56108;48.730;9.304;2023-03-03T00:43:17;97765.25;;;-0.11;100.00
967;BME280;56108;48.730;9.304;2023-03-03T00:45:30;97753.13;;;-0.14;100.00
967;BME280;56108;48.730;9.304;2023-03-03T00:47:42;97758.50;;;0.16;100.00
967;BME280;56108;48.730;9.304;2023-03-03T00:49:50;97757.13;;;0.01;100.00
967;BME280;56108;48.730;9.304;2023-03-03T00:51:58;97757.00;;;0.06;100.00
967;BME280;56108;48.730;9.304;2023-03-03T00:54:07;97752.75;;;0.02;100.00
967;BME280;56108;48.730;9.304;2023-03-03T00:56:15;97752.97;;;-0.08;100.00
967;BME280;56108;48.730;9.304;2023-03-03T00:58:26;97749.72;;;-0.17;100.00
967;BME280;56108;48.730;9.304;2023-03-03T01:00:36;97752.38;;;-0.19;100.00
967;BME280;56108;48.730;9.304;2023-03-03T01:02:46;97752.28;;;-0.16;100.00
967;BME280;56108;48.730;9.304;2023-03-03T01:04:55;97753.22;;;-0.18;100.00
967;BME280;56108;48.730;9.304;2023-03-03T01:07:04;97751.69;;;-0.27;100.00
967;BME280;56108;48.730;9.304;2023-03-03T01:09:11;97748.31;;;-0.32;100.00
967;BME280;56108;48.730;9.304;2023-03-03T01:11:22;97748.44;;;-0.37;100.00
967;BME280;56108;48.730;9.304;2023-03-03T01:13:36;97746.63;;;-0.33;100.00
967;BME280;56108;48.730;9.304;2023-03-03T01:15:44;97743.94;;;-0.32;100.00
967;BME280;56108;48.730;9.304;2023-03-03T01:17:53;97740.34;;;-0.26;100.00
967;BME280;56108;48.730;9.304;2023-03-03T01:20:02;97735.84;;;-0.19;100.00
967;BME280;56108;48.730;9.304;2023-03-03T01:22:10;97740.75;;;-0.07;100.00
967;BME280;56108;48.730;9.304;2023-03-03T01:24:18;97741.59;;;-0.05;100.00
967;BME280;56108;48.730;9.304;2023-03-03T01:26:26;97745.19;;;-0.11;100.00
967;BME280;56108;48.730;9.304;2023-03-03T01:28:38;97747.69;;;-0.06;100.00
967;BME280;56108;48.730;9.304;2023-03-03T01:30:46;97745.13;;;-0.08;100.00
967;BME280;56108;48.730;9.304;2023-03-03T01:32:54;97744.38;;;-0.13;100.00
967;BME280;56108;48.730;9.304;2023-03-03T01:35:03;97744.22;;;-0.07;100.00
967;BME280;56108;48.730;9.304;2023-03-03T01:37:10;97746.06;;;-0.10;100.00
967;BME280;56108;48.730;9.304;2023-03-03T01:39:18;97745.22;;;-0.12;100.00
967;BME280;56108;48.730;9.304;2023-03-03T01:41:27;97753.44;;;-0.26;100.00
967;BME280;56108;48.730;9.304;2023-03-03T01:43:42;97749.28;;;-0.35;100.00
967;BME280;56108;48.730;9.304;2023-03-03T01:46:27;97743.41;;;-0.44;100.00
967;BME280;56108;48.730;9.304;2023-03-03T01:48:38;97737.81;;;-0.29;100.00
967;BME280;56108;48.730;9.304;2023-03-03T01:50:49;97740.63;;;-0.38;100.00
967;BME280;56108;48.730;9.304;2023-03-03T01:52:59;97744.41;;;-0.50;100.00
967;BME280;56108;48.730;9.304;2023-03-03T01:55:13;97742.94;;;-0.24;100.00
967;BME280;56108;48.730;9.304;2023-03-03T01:57:24;97740.69;;;-0.06;100.00
967;BME280;56108;48.730;9.304;2023-03-03T01:59:40;97738.50;;;-0.22;100.00
967;BME280;56108;48.730;9.304;2023-03-03T02:01:49;97743.13;;;-0.34;100.00
967;BME280;56108;48.730;9.304;2023-03-03T02:03:57;97742.50;;;-0.43;100.00
967;BME280;56108;48.730;9.304;2023-03-03T02:06:08;97734.91;;;-0.54;100.00
967;BME280;56108;48.730;9.304;2023-03-03T02:08:22;97727.28;;;-0.28;100.00
967;BME280;56108;48.730;9.304;2023-03-03T02:10:31;97732.34;;;-0.20;100.00
967;BME280;56108;48.730;9.304;2023-03-03T02:12:42;97723.22;;;-0.39;100.00
967;BME280;56108;48.730;9.304;2023-03-03T02:14:53;97721.56;;;-0.43;100.00
967;BME280;56108;48.730;9.304;2023-03-03T02:17:01;97723.66;;;-0.58;100.00
967;BME280;56108;48.730;9.304;2023-03-03T02:19:14;97718.72;;;-0.70;100.00
967;BME280;56108;48.730;9.304;2023-03-03T02:21:26;97712.72;;;-0.75;100.00
967;BME280;56108;48.730;9.304;2023-03-03T02:23:39;97703.13;;;-0.73;100.00
967;BME280;56108;48.730;9.304;2023-03-03T02:26:05;97701.38;;;-0.72;100.00
967;BME280;56108;48.730;9.304;2023-03-03T02:28:14;97691.72;;;-0.70;100.00
967;BME280;56108;48.730;9.304;2023-03-03T02:30:23;97693.47;;;-0.71;100.00
967;BME280;56108;48.730;9.304;2023-03-03T02:32:31;97691.81;;;-0.75;100.00
967;BME280;56108;48.730;9.304;2023-03-03T02:34:48;97706.69;;;-0.77;100.00
967;BME280;56108;48.730;9.304;2023-03-03T02:36:56;97701.47;;;-0.79;100.00
967;BME280;56108;48.730;9.304;2023-03-03T02:39:08;97703.31;;;-0.82;100.00
967;BME280;56108;48.730;9.304;2023-03-03T02:41:27;97694.59;;;-0.81;100.00
967;BME280;56108;48.730;9.304;2023-03-03T02:43:41;97701.38;;;-0.72;100.00
967;BME280;56108;48.730;9.304;2023-03-03T02:45:52;97702.88;;;-0.64;100.00
967;BME280;56108;48.730;9.304;2023-03-03T02:48:02;97699.31;;;-0.60;100.00
967;BME280;56108;48.730;9.304;2023-03-03T02:50:11;97696.44;;;-0.49;100.00
967;BME280;56108;48.730;9.304;2023-03-03T02:52:19;97697.94;;;-0.39;100.00
967;BME280;56108;48.730;9.304;2023-03-03T02:54:28;97705.38;;;-0.22;100.00
967;BME280;56108;48.730;9.304;2023-03-03T02:56:42;97710.78;;;0.05;100.00
967;BME280;56108;48.730;9.304;2023-03-03T02:58:50;97713.97;;;0.17;100.00
967;BME280;56108;48.730;9.304;2023-03-03T03:00:58;97711.63;;;0.39;100.00
967;BME280;56108;48.730;9.304;2023-03-03T03:03:06;97717.81;;;0.37;100.00
967;BME280;56108;48.730;9.304;2023-03-03T03:05:16;97723.19;;;0.32;100.00
967;BME280;56108;48.730;9.304;2023-03-03T03:07:23;97723.88;;;0.39;100.00
967;BME280;56108;48.730;9.304;2023-03-03T03:09:31;97733.50;;;0.69;100.00
967;BME280;56108;48.730;9.304;2023-03-03T03:11:42;97734.22;;;0.74;100.00
967;BME280;56108;48.730;9.304;2023-03-03T03:13:52;97737.22;;;0.92;100.00
967;BME280;56108;48.730;9.304;2023-03-03T03:16:01;97742.59;;;0.87;100.00
967;BME280;56108;48.730;9.304;2023-03-03T03:18:09;97741.09;;;0.78;100.00
967;BME280;56108;48.730;9.304;2023-03-03T03:20:19;97740.31;;;0.75;100.00
967;BME280;56108;48.730;9.304;2023-03-03T03:22:27;97745.47;;;0.78;100.00
967;BME280;56108;48.730;9.304;2023-03-03T03:24:35;97743.50;;;0.86;100.00
967;BME280;56108;48.730;9.304;2023-03-03T03:26:48;97739.91;;;0.90;100.00
967;BME280;56108;48.730;9.304;2023-03-03T03:28:57;97738.72;;;1.00;100.00
967;BME280;56108;48.730;9.304;2023-03-03T03:31:06;97741.06;;;1.10;100.00
967;BME280;56108;48.730;9.304;2023-03-03T03:33:15;97742.06;;;1.06;100.00
967;BME280;56108;48.730;9.304;2023-03-03T03:35:23;97744.50;;;1.12;100.00
967;BME280;56108;48.730;9.304;2023-03-03T03:37:31;97745.03;;;1.23;100.00
967;BME280;56108;48.730;9.304;2023-03-03T03:39:40;97755.06;;;1.09;100.00
967;BME280;56108;48.730;9.304;2023-03-03T03:41:51;97753.06;;;0.87;100.00
967;BME280;56108;48.730;9.304;2023-03-03T03:43:59;97748.31;;;1.01;100.00
967;BME280;56108;48.730;9.304;2023-03-03T03:46:07;97749.94;;;1.06;100.00
967;BME280;56108;48.730;9.304;2023-03-03T03:48:16;97751.59;;;1.08;100.00
967;BME280;56108;48.730;9.304;2023-03-03T03:50:26;97754.31;;;1.05;100.00
967;BME280;56108;48.730;9.304;2023-03-03T03:52:34;97756.75;;;1.11;100.00
967;BME280;56108;48.730;9.304;2023-03-03T03:54:42;97752.44;;;1.10;100.00
967;BME280;56108;48.730;9.304;2023-03-03T03:59:01;97749.81;;;1.09;100.00
967;BME280;56108;48.730;9.304;2023-03-03T04:01:09;97756.25;;;1.28;100.00
967;BME280;56108;48.730;9.304;2023-03-03T04:03:22;97752.72;;;1.29;100.00
967;BME280;56108;48.730;9.304;2023-03-03T04:05:31;97750.06;;;1.30;100.00
967;BME280;56108;48.730;9.304;2023-03-03T04:07:39;97747.25;;;1.65;100.00
967;BME280;56108;48.730;9.304;2023-03-03T04:09:48;97750.41;;;1.76;100.00
967;BME280;56108;48.730;9.304;2023-03-03T04:11:59;97747.13;;;1.69;100.00
967;BME280;56108;48.730;9.304;2023-03-03T04:14:08;97755.13;;;1.65;100.00
967;BME280;56108;48.730;9.304;2023-03-03T04:16:16;97748.31;;;1.59;100.00
967;BME280;56108;48.730;9.304;2023-03-03T04:18:24;97755.31;;;1.59;100.00
967;BME280;56108;48.730;9.304;2023-03-03T04:20:32;97764.25;;;1.53;100.00
967;BME280;56108;48.730;9.304;2023-03-03T04:22:40;97766.19;;;1.46;100.00
967;BME280;56108;48.730;9.304;2023-03-03T04:24:48;97761.09;;;1.42;100.00
967;BME280;56108;48.730;9.304;2023-03-03T04:26:59;97757.28;;;1.52;100.00
967;BME280;56108;48.730;9.304;2023-03-03T04:29:06;97771.13;;;1.55;100.00
967;BME280;56108;48.730;9.304;2023-03-03T04:31:16;97769.38;;;1.56;100.00
967;BME280;56108;48.730;9.304;2023-03-03T04:33:25;97771.38;;;1.48;100.00
967;BME280;56108;48.730;9.304;2023-03-03T04:35:33;97775.59;;;1.53;100.00
967;BME280;56108;48.730;9.304;2023-03-03T04:37:42;97772.06;;;1.54;100.00
967;BME280;56108;48.730;9.304;2023-03-03T04:39:50;97769.38;;;1.56;100.00
967;BME280;56108;48.730;9.304;2023-03-03T04:42:01;97775.59;;;1.53;100.00
967;BME280;56108;48.730;9.304;2023-03-03T04:44:09;97766.75;;;1.56;100.00
967;BME280;56108;48.730;9.304;2023-03-03T04:46:18;97764.38;;;1.48;100.00
967;BME280;56108;48.730;9.304;2023-03-03T04:48:27;97771.97;;;1.58;100.00
967;BME280;56108;48.730;9.304;2023-03-03T04:50:35;97771.91;;;1.59;100.00
967;BME280;56108;48.730;9.304;2023-03-03T04:52:43;97777.09;;;1.61;100.00
967;BME280;56108;48.730;9.304;2023-03-03T04:54:52;97779.59;;;1.65;100.00
967;BME280;56108;48.730;9.304;2023-03-03T04:57:03;97783.97;;;1.65;100.00
967;BME280;56108;48.730;9.304;2023-03-03T04:59:13;97779.53;;;1.67;100.00
967;BME280;56108;48.730;9.304;2023-03-03T05:01:22;97782.31;;;1.62;100.00
967;BME280;56108;48.730;9.304;2023-03-03T05:03:30;97781.44;;;1.62;100.00
967;BME280;56108;48.730;9.304;2023-03-03T05:05:39;97784.03;;;1.63;100.00
967;BME280;56108;48.730;9.304;2023-03-03T05:07:47;97797.44;;;1.54;100.00
967;BME280;56108;48.730;9.304;2023-03-03T05:09:55;97796.25;;;1.35;100.00
967;BME280;56108;48.730;9.304;2023-03-03T05:12:06;97788.97;;;1.44;100.00
967;BME280;56108;48.730;9.304;2023-03-03T05:14:14;97784.38;;;1.52;100.00
967;BME280;56108;48.730;9.304;2023-03-03T05:16:23;97796.97;;;1.40;100.00
967;BME280;56108;48.730;9.304;2023-03-03T05:18:31;97800.56;;;1.36;100.00
967;BME280;56108;48.730;9.304;2023-03-03T05:20:39;97794.16;;;1.46;100.00
967;BME280;56108;48.730;9.304;2023-03-03T05:22:47;97795.03;;;1.46;100.00
967;BME280;56108;48.730;9.304;2023-03-03T05:24:55;97790.41;;;1.54;100.00
967;BME280;56108;48.730;9.304;2023-03-03T05:27:03;97793.88;;;1.55;100.00
967;BME280;56108;48.730;9.304;2023-03-03T05:29:13;97795.66;;;1.54;100.00
967;BME280;56108;48.730;9.304;2023-03-03T05:31:21;97798.34;;;1.53;100.00
967;BME280;56108;48.730;9.304;2023-03-03T05:33:31;97791.22;;;1.56;100.00
967;BME280;56108;48.730;9.304;2023-03-03T05:35:38;97794.63;;;1.60;100.00
967;BME280;56108;48.730;9.304;2023-03-03T05:37:46;97796.50;;;1.55;100.00
967;BME280;56108;48.730;9.304;2023-03-03T05:39:54;97800.72;;;1.61;100.00
967;BME280;56108;48.730;9.304;2023-03-03T05:42:03;97798.63;;;1.72;100.00
967;BME280;56108;48.730;9.304;2023-03-03T05:44:14;97801.69;;;1.86;100.00
967;BME280;56108;48.730;9.304;2023-03-03T05:46:24;97799.06;;;1.86;100.00
967;BME280;56108;48.730;9.304;2023-03-03T05:48:32;97807.88;;;1.83;100.00
967;BME280;56108;48.730;9.304;2023-03-03T05:50:40;97812.63;;;1.71;100.00
967;BME280;56108;48.730;9.304;2023-03-03T05:52:48;97810.28;;;1.62;100.00
967;BME280;56108;48.730;9.304;2023-03-03T05:54:56;97812.78;;;1.66;100.00
967;BME280;56108;48.730;9.304;2023-03-03T05:57:04;97815.25;;;1.71;100.00
967;BME280;56108;48.730;9.304;2023-03-03T05:59:14;97816.22;;;1.68;100.00
967;BME280;56108;48.730;9.304;2023-03-03T06:01:47;97812.97;;;1.60;100.00
967;BME280;56108;48.730;9.304;2023-03-03T06:04:05;97817.88;;;1.71;100.00
967;BME280;56108;48.730;9.304;2023-03-03T06:06:13;97820.69;;;1.65;100.00
967;BME280;56108;48.730;9.304;2023-03-03T06:08:23;97819.78;;;1.66;100.00
967;BME280;56108;48.730;9.304;2023-03-03T06:10:30;97817.16;;;1.66;100.00
967;BME280;56108;48.730;9.304;2023-03-03T06:12:42;97821.56;;;1.65;100.00
967;BME280;56108;48.730;9.304;2023-03-03T06:14:52;97825.19;;;1.61;100.00
967;BME280;56108;48.730;9.304;2023-03-03T06:17:00;97823.59;;;1.55;100.00
967;BME280;56108;48.730;9.304;2023-03-03T06:19:08;97824.56;;;1.53;100.00
967;BME280;56108;48.730;9.304;2023-03-03T06:21:17;97828.66;;;1.62;100.00
967;BME280;56108;48.730;9.304;2023-03-03T06:23:25;97832.38;;;1.82;100.00
967;BME280;56108;48.730;9.304;2023-03-03T06:25:33;97834.03;;;1.87;100.00
967;BME280;56108;48.730;9.304;2023-03-03T06:27:41;97837.63;;;1.84;100.00
967;BME280;56108;48.730;9.304;2023-03-03T06:29:52;97841.03;;;1.86;100.00
967;BME280;56108;48.730;9.304;2023-03-03T06:32:00;97840.69;;;1.97;100.00
967;BME280;56108;48.730;9.304;2023-03-03T06:34:08;97850.06;;;2.05;100.00
967;BME280;56108;48.730;9.304;2023-03-03T06:36:17;97852.50;;;1.83;100.00
967;BME280;56108;48.730;9.304;2023-03-03T06:38:25;97852.88;;;1.99;100.00
967;BME280;56108;48.730;9.304;2023-03-03T06:40:33;97851.13;;;2.00;100.00
967;BME280;56108;48.730;9.304;2023-03-03T06:42:41;97862.34;;;2.03;100.00
967;BME280;56108;48.730;9.304;2023-03-03T06:44:52;97849.16;;;2.06;100.00
967;BME280;56108;48.730;9.304;2023-03-03T06:47:00;97860.28;;;2.15;100.00
967;BME280;56108;48.730;9.304;2023-03-03T06:49:09;97862.06;;;2.14;100.00
967;BME280;56108;48.730;9.304;2023-03-03T06:51:22;97860.03;;;2.22;100.00
967;BME280;56108;48.730;9.304;2023-03-03T06:53:32;97857.25;;;2.27;100.00
967;BME280;56108;48.730;9.304;2023-03-03T06:55:40;97858.75;;;2.35;100.00
967;BME280;56108;48.730;9.304;2023-03-03T06:57:49;97868.47;;;2.58;100.00
967;BME280;56108;48.730;9.304;2023-03-03T07:00:14;97869.34;;;2.59;100.00
967;BME280;56108;48.730;9.304;2023-03-03T07:02:23;97875.22;;;2.66;100.00
967;BME280;56108;48.730;9.304;2023-03-03T07:04:32;97875.16;;;2.69;100.00
967;BME280;56108;48.730;9.304;2023-03-03T07:06:40;97879.03;;;2.83;100.00
967;BME280;56108;48.730;9.304;2023-03-03T07:08:49;97874.13;;;2.73;99.46
967;BME280;56108;48.730;9.304;2023-03-03T07:11:01;97881.53;;;2.86;99.64
967;BME280;56108;48.730;9.304;2023-03-03T07:13:19;97887.91;;;2.79;97.58
967;BME280;56108;48.730;9.304;2023-03-03T07:15:33;97887.41;;;2.95;96.79
967;BME280;56108;48.730;9.304;2023-03-03T07:17:44;97890.56;;;3.04;95.75
967;BME280;56108;48.730;9.304;2023-03-03T07:19:54;97886.72;;;3.14;94.24
967;BME280;56108;48.730;9.304;2023-03-03T07:22:13;97901.97;;;3.30;92.36
967;BME280;56108;48.730;9.304;2023-03-03T07:24:25;97900.19;;;3.30;92.50
967;BME280;56108;48.730;9.304;2023-03-03T07:26:34;97898.88;;;3.42;91.54
967;BME280;56108;48.730;9.304;2023-03-03T07:28:44;97897.63;;;3.52;91.40
967;BME280;56108;48.730;9.304;2023-03-03T07:30:58;97893.91;;;3.58;91.54
967;BME280;56108;48.730;9.304;2023-03-03T07:33:17;97896.88;;;3.49;90.77
967;BME280;56108;48.730;9.304;2023-03-03T07:35:35;97895.91;;;3.75;90.58
967;BME280;56108;48.730;9.304;2023-03-03T07:37:45;97897.44;;;3.82;89.84
967;BME280;56108;48.730;9.304;2023-03-03T07:39:53;97895.41;;;3.65;89.97
967;BME280;56108;48.730;9.304;2023-03-03T07:42:13;97893.63;;;3.89;89.03
967;BME280;56108;48.730;9.304;2023-03-03T07:44:32;97901.88;;;4.03;86.85
967;BME280;56108;48.730;9.304;2023-03-03T07:46:45;97902.72;;;4.04;87.21
967;BME280;56108;48.730;9.304;2023-03-03T07:48:55;97897.78;;;4.18;86.52
967;BME280;56108;48.730;9.304;2023-03-03T07:51:10;97898.91;;;4.56;84.68
967;BME280;56108;48.730;9.304;2023-03-03T07:53:23;97893.03;;;4.50;84.26
967;BME280;56108;48.730;9.304;2023-03-03T07:55:34;97902.38;;;4.57;83.91
967;BME280;56108;48.730;9.304;2023-03-03T07:57:43;97904.94;;;4.58;83.40
967;BME280;56108;48.730;9.304;2023-03-03T07:59:52;97914.19;;;4.68;81.79
967;BME280;56108;48.730;9.304;2023-03-03T08:02:05;97906.28;;;4.68;81.33
967;BME280;56108;48.730;9.304;2023-03-03T08:04:27;97910.34;;;4.77;79.32
967;BME280;56108;48.730;9.304;2023-03-03T08:06:41;97916.09;;;4.87;77.99
967;BME280;56108;48.730;9.304;2023-03-03T08:08:51;97917.88;;;4.86;77.30
967;BME280;56108;48.730;9.304;2023-03-03T08:10:59;97908.41;;;4.60;77.46
967;BME280;56108;48.730;9.304;2023-03-03T08:13:16;97916.53;;;4.76;77.03
967;BME280;56108;48.730;9.304;2023-03-03T08:15:27;97923.88;;;4.68;78.26
967;BME280;56108;48.730;9.304;2023-03-03T08:17:41;97923.19;;;4.85;77.14
967;BME280;56108;48.730;9.304;2023-03-03T08:19:51;97919.41;;;4.92;76.67
967;BME280;56108;48.730;9.304;2023-03-03T08:22:02;97920.41;;;4.67;76.89
967;BME280;56108;48.730;9.304;2023-03-03T08:24:16;97919.03;;;4.79;76.93
967;BME280;56108;48.730;9.304;2023-03-03T08:26:24;97915.53;;;4.79;77.21
967;BME280;56108;48.730;9.304;2023-03-03T08:28:33;97915.59;;;4.77;77.51
967;BME280;56108;48.730;9.304;2023-03-03T08:30:42;97904.81;;;4.83;77.41
967;BME280;56108;48.730;9.304;2023-03-03T08:32:53;97918.47;;;4.93;77.36
967;BME280;56108;48.730;9.304;2023-03-03T08:35:01;97913.28;;;4.91;76.51
967;BME280;56108;48.730;9.304;2023-03-03T08:37:09;97916.88;;;4.89;76.18
967;BME280;56108;48.730;9.304;2023-03-03T08:39:16;97916.03;;;4.88;75.33
967;BME280;56108;48.730;9.304;2023-03-03T08:41:24;97925.31;;;4.77;76.30
967;BME280;56108;48.730;9.304;2023-03-03T08:43:35;97925.06;;;5.03;74.61
967;BME280;56108;48.730;9.304;2023-03-03T08:45:44;97920.09;;;4.95;74.67
967;BME280;56108;48.730;9.304;2023-03-03T08:47:55;97925.84;;;5.05;74.30
967;BME280;56108;48.730;9.304;2023-03-03T08:50:04;97918.59;;;5.10;73.78
967;BME280;56108;48.730;9.304;2023-03-03T08:52:12;97923.03;;;5.30;73.50
967;BME280;56108;48.730;9.304;2023-03-03T08:54:20;97927.00;;;5.20;73.29
967;BME280;56108;48.730;9.304;2023-03-03T08:56:29;97924.56;;;5.36;72.73
967;BME280;56108;48.730;9.304;2023-03-03T08:58:37;97931.81;;;5.31;73.09
967;BME280;56108;48.730;9.304;2023-03-03T09:01:06;97933.94;;;5.43;72.65
967;BME280;56108;48.730;9.304;2023-03-03T09:03:16;97939.59;;;5.54;71.75
967;BME280;56108;48.730;9.304;2023-03-03T09:05:25;97942.56;;;5.67;72.09
967;BME280;56108;48.730;9.304;2023-03-03T09:07:34;97950.13;;;5.95;71.07
967;BME280;56108;48.730;9.304;2023-03-03T09:09:42;97958.44;;;6.06;70.02
967;BME280;56108;48.730;9.304;2023-03-03T09:11:52;97960.63;;;6.15;69.62
967;BME280;56108;48.730;9.304;2023-03-03T09:14:06;97960.84;;;6.67;66.54
967;BME280;56108;48.730;9.304;2023-03-03T09:16:15;97969.47;;;6.90;65.23
967;BME280;56108;48.730;9.304;2023-03-03T09:18:31;97968.63;;;7.06;64.58
967;BME280;56108;48.730;9.304;2023-03-03T09:20:44;97973.22;;;7.20;63.47
967;BME280;56108;48.730;9.304;2023-03-03T09:22:55;97969.13;;;7.32;63.74
967;BME280;56108;48.730;9.304;2023-03-03T09:25:14;97974.50;;;7.48;63.26
967;BME280;56108;48.730;9.304;2023-03-03T09:27:27;97987.28;;;7.57;61.06
967;BME280;56108;48.730;9.304;2023-03-03T09:29:36;97984.47;;;7.60;61.60
967;BME280;56108;48.730;9.304;2023-03-03T09:31:48;97992.00;;;7.85;60.35
967;BME280;56108;48.730;9.304;2023-03-03T09:33:59;97983.44;;;7.80;61.93
967;BME280;56108;48.730;9.304;2023-03-03T09:36:20;97987.38;;;8.06;60.65
967;BME280;56108;48.730;9.304;2023-03-03T09:38:32;97987.41;;;8.22;59.41
967;BME280;56108;48.730;9.304;2023-03-03T09:40:50;98000.53;;;8.07;59.12
967;BME280;56108;48.730;9.304;2023-03-03T09:43:05;98004.16;;;8.22;58.04
967;BME280;56108;48.730;9.304;2023-03-03T09:45:40;98001.09;;;8.30;58.30
967;BME280;56108;48.730;9.304;2023-03-03T09:48:03;98001.00;;;8.65;57.73
967;BME280;56108;48.730;9.304;2023-03-03T09:50:26;98003.06;;;8.75;56.82
967;BME280;56108;48.730;9.304;2023-03-03T09:52:40;97999.38;;;8.46;56.94
967;BME280;56108;48.730;9.304;2023-03-03T09:54:57;98004.34;;;9.15;56.28
967;BME280;56108;48.730;9.304;2023-03-03T09:57:12;98018.84;;;9.70;53.64
967;BME280;56108;48.730;9.304;2023-03-03T09:59:35;98016.47;;;9.65;53.90
967;BME280;56108;48.730;9.304;2023-03-03T10:02:23;98015.34;;;10.14;53.38
967;BME280;56108;48.730;9.304;2023-03-03T10:04:59;98030.25;;;11.02;50.01
967;BME280;56108;48.730;9.304;2023-03-03T10:07:25;98037.75;;;10.95;50.77
967;BME280;56108;48.730;9.304;2023-03-03T10:12:16;98027.22;;;10.23;52.03
967;BME280;56108;48.730;9.304;2023-03-03T10:14:40;98027.63;;;9.86;52.89
967;BME280;56108;48.730;9.304;2023-03-03T10:17:17;98023.75;;;9.78;52.92
967;BME280;56108;48.730;9.304;2023-03-03T10:19:35;98015.34;;;9.39;54.12
967;BME280;56108;48.730;9.304;2023-03-03T10:21:50;98018.53;;;9.90;52.27
967;BME280;56108;48.730;9.304;2023-03-03T10:24:15;98023.53;;;9.66;53.00
967;BME280;56108;48.730;9.304;2023-03-03T10:27:04;98024.06;;;10.02;53.05
967;BME280;56108;48.730;9.304;2023-03-03T10:29:25;98036.69;;;10.12;51.04
967;BME280;56108;48.730;9.304;2023-03-03T10:31:47;98031.41;;;10.84;51.46
967;BME280;56108;48.730;9.304;2023-03-03T10:34:06;98026.66;;;10.89;50.65
967;BME280;56108;48.730;9.304;2023-03-03T10:36:32;98026.66;;;9.73;51.66
967;BME280;56108;48.730;9.304;2023-03-03T10:38:49;98017.91;;;9.41;52.52
967;BME280;56108;48.730;9.304;2023-03-03T10:41:14;98027.06;;;10.68;51.99
967;BME280;56108;48.730;9.304;2023-03-03T10:43:38;98033.91;;;10.87;50.29
967;BME280;56108;48.730;9.304;2023-03-03T10:48:39;98031.34;;;10.57;51.42
967;BME280;56108;48.730;9.304;2023-03-03T10:50:53;98017.66;;;10.77;50.91
967;BME280;56108;48.730;9.304;2023-03-03T10:53:16;98024.66;;;10.78;50.61
967;BME280;56108;48.730;9.304;2023-03-03T10:55:35;98018.81;;;11.00;51.08
967;BME280;56108;48.730;9.304;2023-03-03T10:57:58;98020.06;;;10.94;50.21
967;BME280;56108;48.730;9.304;2023-03-03T11:00:22;98017.44;;;11.21;51.03
967;BME280;56108;48.730;9.304;2023-03-03T11:02:35;98022.88;;;10.79;50.69
967;BME280;56108;48.730;9.304;2023-03-03T11:04:54;98017.47;;;10.66;52.13
967;BME280;56108;48.730;9.304;2023-03-03T11:07:10;98023.28;;;10.44;51.89
967;BME280;56108;48.730;9.304;2023-03-03T11:09:33;98011.41;;;10.35;52.68
967;BME280;56108;48.730;9.304;2023-03-03T11:11:49;98010.81;;;10.30;53.11
967;BME280;56108;48.730;9.304;2023-03-03T11:14:11;98008.91;;;10.32;53.49
967;BME280;56108;48.730;9.304;2023-03-03T11:16:32;98005.19;;;10.20;52.45
967;BME280;56108;48.730;9.304;2023-03-03T11:18:56;98012.28;;;10.06;52.87
967;BME280;56108;48.730;9.304;2023-03-03T11:21:12;98009.75;;;10.18;53.10
967;BME280;56108;48.730;9.304;2023-03-03T11:23:34;98009.38;;;9.80;54.01
967;BME280;56108;48.730;9.304;2023-03-03T11:25:49;98022.50;;;9.83;53.29
967;BME280;56108;48.730;9.304;2023-03-03T11:28:11;98021.06;;;9.78;54.01
967;BME280;56108;48.730;9.304;2023-03-03T11:30:33;98019.47;;;9.45;54.33
967;BME280;56108;48.730;9.304;2023-03-03T11:32:48;98013.69;;;9.53;55.05
967;BME280;56108;48.730;9.304;2023-03-03T11:35:06;98016.19;;;9.56;53.79
967;BME280;56108;48.730;9.304;2023-03-03T11:37:21;98008.22;;;9.70;54.54
967;BME280;56108;48.730;9.304;2023-03-03T11:39:32;98008.59;;;9.64;54.39
967;BME280;56108;48.730;9.304;2023-03-03T11:41:42;98014.75;;;9.64;54.04
967;BME280;56108;48.730;9.304;2023-03-03T11:44:01;98013.63;;;9.38;54.83
967;BME280;56108;48.730;9.304;2023-03-03T11:46:17;98011.16;;;9.35;55.43
967;BME280;56108;48.730;9.304;2023-03-03T11:48:34;98009.41;;;8.57;54.15
967;BME280;56108;48.730;9.304;2023-03-03T11:50:53;97999.06;;;8.68;53.90
967;BME280;56108;48.730;9.304;2023-03-03T11:53:23;98002.78;;;7.65;56.11
967;BME280;56108;48.730;9.304;2023-03-03T11:55:35;97985.94;;;7.66;57.18
967;BME280;56108;48.730;9.304;2023-03-03T11:57:47;97973.59;;;7.99;59.68
967;BME280;56108;48.730;9.304;2023-03-03T12:00:03;97973.47;;;8.34;56.54
967;BME280;56108;48.730;9.304;2023-03-03T12:02:39;97978.84;;;8.17;56.64
967;BME280;56108;48.730;9.304;2023-03-03T12:04:54;97968.94;;;7.87;58.26
967;BME280;56108;48.730;9.304;2023-03-03T12:07:12;97959.75;;;8.59;59.65
967;BME280;56108;48.730;9.304;2023-03-03T12:09:31;97968.66;;;8.58;57.92